Time;durP1;ratioP1;P1;durP2;ratioP2;P2;SDS_P1;SDS_P2;PMS_P1;PMS_P2;Temp;Humidity;BMP_temperature;BMP_pressure;BME280_temperature;BME280_humidity;BME280_pressure;Samples;Min_cycle;Max_cycle;Signal;HPM_P1;HPM_P2
2022/06/01 00:02:46;;;;;;;5.93;4.73;;;12.80;1.00;;;;;;8402977;28;20176;-65
2022/06/01 00:06:47;;;;;;;6.60;5.00;;;12.80;1.00;;;;;;8394163;28;20215;-65
2022/06/01 00:10:49;;;;;;;4.73;4.23;;;12.70;1.00;;;;;;8393192;28;20176;-68
2022/06/01 00:14:50;;;;;;;4.50;3.70;;;12.60;99.90;;;;;;8397521;28;20471;-65
2022/06/01 00:18:50;;;;;;;5.17;4.03;;;12.50;1.00;;;;;;8399375;28;20208;-66
2022/06/01 00:22:51;;;;;;;4.93;4.43;;;12.30;1.00;;;;;;8400735;28;20222;-66
2022/06/01 00:26:52;;;;;;;6.23;4.87;;;12.10;99.90;;;;;;8396844;28;20219;-65
2022/06/01 00:30:53;;;;;;;5.93;5.13;;;11.80;99.90;;;;;;8399999;28;20243;-66
2022/06/01 00:34:54;;;;;;;6.53;5.07;;;11.60;99.90;;;;;;8397111;28;20198;-65
2022/06/01 00:38:54;;;;;;;5.47;4.83;;;11.40;99.90;;;;;;8400259;28;20181;-66
2022/06/01 00:42:58;;;;;;;5.33;4.60;;;11.10;99.90;;;;;;8394588;28;20271;-65
2022/06/01 00:46:59;;;;;;;4.27;3.90;;;11.00;99.90;;;;;;8403366;28;20208;-63
2022/06/01 00:51:01;;;;;;;4.67;4.27;;;10.80;99.90;;;;;;8401352;28;20183;-63
2022/06/01 00:55:15;;;;;;;4.50;4.10;;;10.70;99.90;;;;;;8406338;28;20176;-64
2022/06/01 00:59:20;;;;;;;8.03;5.03;;;10.50;99.90;;;;;;8400777;28;20200;-66
2022/06/01 01:03:25;;;;;;;5.70;5.17;;;10.40;99.90;;;;;;8398255;28;20344;-65
2022/06/01 01:07:26;;;;;;;5.10;4.60;;;10.30;99.90;;;;;;8403637;28;20197;-65
2022/06/01 01:11:54;;;;;;;5.33;4.20;;;10.20;99.90;;;;;;8402413;28;20173;-65
2022/06/01 01:15:55;;;;;;;4.37;3.97;;;10.00;99.90;;;;;;8388677;28;20629;-64
2022/06/01 01:19:56;;;;;;;4.37;3.97;;;9.80;99.90;;;;;;8394306;28;20225;-64
2022/06/01 01:24:09;;;;;;;4.57;4.17;;;9.60;99.90;;;;;;8398559;28;20504;-64
2022/06/01 01:28:10;;;;;;;4.93;4.20;;;9.50;99.90;;;;;;8413853;28;20270;-65
2022/06/01 01:32:13;;;;;;;6.27;4.43;;;9.30;99.90;;;;;;8404421;28;20177;-65
2022/06/01 01:36:15;;;;;;;5.60;4.20;;;9.20;99.90;;;;;;8404268;28;20185;-65
2022/06/01 01:40:17;;;;;;;4.33;3.90;;;9.10;99.90;;;;;;8409277;28;20188;-64
2022/06/01 01:44:47;;;;;;;4.53;4.00;;;8.90;99.90;;;;;;8414410;28;20208;-64
2022/06/01 01:48:47;;;;;;;4.30;3.90;;;8.80;99.90;;;;;;8412109;28;20204;-65
2022/06/01 01:52:49;;;;;;;4.60;4.17;;;8.70;99.90;;;;;;8402954;28;20208;-64
2022/06/01 01:56:56;;;;;;;4.87;4.47;;;8.60;99.90;;;;;;8403275;28;20200;-64
2022/06/01 02:01:03;;;;;;;5.20;4.60;;;8.50;99.90;;;;;;8407262;28;20229;-66
2022/06/01 02:14:07;;;;;;;5.13;4.63;;;8.40;99.90;;;;;;8400893;28;20184;-65
2022/06/01 02:18:13;;;;;;;4.70;4.30;;;8.30;99.90;;;;;;8406783;28;20188;-65
2022/06/01 02:22:14;;;;;;;5.50;5.00;;;8.20;99.90;;;;;;8407618;28;20176;-65
2022/06/01 02:26:18;;;;;;;7.37;6.40;;;8.10;99.90;;;;;;8398370;28;20379;-65
2022/06/01 02:30:27;;;;;;;8.33;7.30;;;8.20;99.90;;;;;;8403154;28;20233;-70
2022/06/01 02:34:30;;;;;;;9.17;8.20;;;8.50;99.90;;;;;;8401907;28;20208;-66
2022/06/01 02:38:41;;;;;;;8.57;7.77;;;8.80;99.90;;;;;;8405303;28;20185;-66
2022/06/01 02:42:50;;;;;;;9.07;8.00;;;9.00;99.90;;;;;;8403982;28;20217;-64
2022/06/01 02:46:51;;;;;;;10.03;8.57;;;9.10;99.90;;;;;;8401471;28;20576;-64
2022/06/01 02:50:52;;;;;;;8.63;7.57;;;9.20;99.90;;;;;;8405104;28;20268;-65
2022/06/01 02:54:53;;;;;;;9.00;8.13;;;9.20;99.90;;;;;;8406794;28;20208;-64
2022/06/01 02:58:54;;;;;;;9.63;8.63;;;9.20;99.90;;;;;;8396862;28;20296;-65
2022/06/01 03:02:58;;;;;;;9.30;8.40;;;9.30;99.90;;;;;;8413985;28;20180;-66
2022/06/01 03:06:59;;;;;;;9.57;8.37;;;9.30;99.90;;;;;;8408633;28;20211;-66
2022/06/01 03:11:00;;;;;;;14.13;9.33;;;9.30;99.90;;;;;;8411332;28;20168;-66
2022/06/01 03:15:01;;;;;;;10.30;9.30;;;9.30;99.90;;;;;;8408277;28;20559;-67
2022/06/01 03:19:02;;;;;;;10.23;9.23;;;9.30;99.90;;;;;;8399798;28;20184;-66
2022/06/01 03:23:03;;;;;;;11.80;10.60;;;9.30;99.90;;;;;;8416990;28;20259;-66
2022/06/01 03:27:04;;;;;;;12.77;11.47;;;9.60;99.90;;;;;;8404659;28;20273;-67
2022/06/01 03:31:06;;;;;;;11.87;10.67;;;10.30;99.90;;;;;;8402884;28;20176;-68
2022/06/01 03:35:07;;;;;;;8.23;7.47;;;11.00;99.90;;;;;;8409890;28;20169;-66
2022/06/01 03:39:08;;;;;;;8.57;6.67;;;11.80;99.90;;;;;;8404570;28;20226;-66
2022/06/01 03:43:11;;;;;;;6.00;5.30;;;12.30;99.90;;;;;;8402307;28;20189;-67
2022/06/01 03:47:11;;;;;;;6.10;5.03;;;12.60;99.90;;;;;;8408192;28;20197;-67
2022/06/01 03:51:12;;;;;;;8.60;5.73;;;12.90;99.90;;;;;;8407288;28;20193;-67
2022/06/01 03:55:14;;;;;;;7.10;6.40;;;12.90;99.90;;;;;;8404125;28;20203;-66
2022/06/01 03:59:15;;;;;;;8.33;6.70;;;12.10;99.90;;;;;;8403495;28;20185;-68
2022/06/01 04:03:17;;;;;;;8.20;6.67;;;11.50;99.90;;;;;;8399810;28;20185;-69
2022/06/01 04:07:18;;;;;;;8.43;7.27;;;11.10;99.90;;;;;;8403801;28;20205;-68
2022/06/01 04:11:18;;;;;;;7.90;7.10;;;10.90;99.90;;;;;;8405686;28;20173;-66
2022/06/01 04:15:19;;;;;;;9.97;7.23;;;10.80;99.90;;;;;;8406570;28;20180;-67
2022/06/01 04:19:20;;;;;;;8.80;8.00;;;10.80;99.90;;;;;;8408721;28;20188;-70
2022/06/01 04:23:21;;;;;;;8.40;7.40;;;11.00;99.90;;;;;;8408510;28;20320;-67
2022/06/01 04:27:22;;;;;;;8.93;8.03;;;11.10;99.90;;;;;;8394646;28;20213;-68
2022/06/01 04:31:25;;;;;;;9.47;8.17;;;11.30;99.90;;;;;;8400495;28;20181;-67
2022/06/01 04:35:26;;;;;;;10.47;9.40;;;11.30;99.90;;;;;;8404098;28;20252;-68
2022/06/01 04:39:27;;;;;;;10.77;9.67;;;11.40;99.90;;;;;;8406164;28;20216;-70
2022/06/01 04:43:30;;;;;;;10.03;9.10;;;11.40;99.90;;;;;;8405045;28;20185;-67
2022/06/01 04:47:31;;;;;;;10.47;9.30;;;11.60;25.60;;;;;;8407366;28;20203;-67
2022/06/01 04:51:32;;;;;;;9.77;8.77;;;11.90;82.60;;;;;;8408357;28;20179;-68
2022/06/01 04:55:32;;;;;;;8.13;7.37;;;12.30;99.90;;;;;;8406915;28;20184;-67
2022/06/01 04:59:33;;;;;;;7.37;6.57;;;13.30;1.00;;;;;;8404179;28;20192;-68
2022/06/01 05:03:34;;;;;;;7.87;7.00;;;13.80;99.90;;;;;;8412087;28;20180;-66
2022/06/01 05:07:35;;;;;;;8.57;7.73;;;13.90;99.90;;;;;;8405960;28;20196;-68
2022/06/01 05:11:36;;;;;;;7.60;6.90;;;13.50;99.90;;;;;;8417294;28;20228;-66
2022/06/01 05:15:49;;;;;;;7.90;7.20;;;13.10;99.90;;;;;;8412749;28;20192;-68
2022/06/01 05:19:50;;;;;;;7.60;6.80;;;13.00;99.90;;;;;;8407023;28;20195;-66
2022/06/01 05:23:51;;;;;;;8.47;7.67;;;13.00;1.00;;;;;;8413411;28;20211;-67
2022/06/01 05:27:51;;;;;;;8.53;7.43;;;13.10;22.10;;;;;;8418503;28;20255;-68
2022/06/01 05:31:52;;;;;;;8.57;7.67;;;13.00;99.90;;;;;;8413650;28;20183;-72
2022/06/01 05:35:53;;;;;;;9.70;7.03;;;13.40;1.00;;;;;;8412607;28;20177;-67
2022/06/01 05:39:54;;;;;;;7.90;7.10;;;13.50;1.00;;;;;;8411432;28;20195;-68
2022/06/01 05:43:55;;;;;;;9.07;8.13;;;13.80;99.90;;;;;;8412124;28;20184;-69
2022/06/01 05:47:56;;;;;;;8.97;8.07;;;14.00;99.90;;;;;;8417503;28;20193;-67
2022/06/01 05:51:57;;;;;;;8.93;8.10;;;13.60;1.00;;;;;;8411862;28;20188;-68
2022/06/01 05:55:58;;;;;;;9.03;8.00;;;13.30;1.00;;;;;;8405126;28;20172;-68
2022/06/01 05:59:59;;;;;;;8.17;7.47;;;13.10;99.90;;;;;;8412021;28;20238;-68
2022/06/01 06:03:59;;;;;;;7.70;7.00;;;13.20;99.90;;;;;;8410654;28;20462;-69
2022/06/01 06:08:00;;;;;;;7.70;7.00;;;13.20;99.90;;;;;;8419520;28;20291;-71
2022/06/01 06:12:01;;;;;;;7.17;6.47;;;13.30;13.60;;;;;;8405981;28;20211;-68
2022/06/01 06:16:03;;;;;;;6.70;6.00;;;13.40;1.00;;;;;;8409844;28;20176;-67
2022/06/01 06:20:05;;;;;;;5.93;5.30;;;13.60;99.90;;;;;;8415012;28;20178;-68
2022/06/01 06:24:09;;;;;;;5.13;4.70;;;13.90;99.90;;;;;;8409834;28;20196;-69
2022/06/01 06:28:11;;;;;;;5.63;5.00;;;14.20;99.90;;;;;;8404788;28;20275;-67
2022/06/01 06:32:12;;;;;;;5.70;4.63;;;14.30;1.00;;;;;;8415758;28;20246;-67
2022/06/01 06:36:14;;;;;;;4.90;4.40;;;14.50;1.00;;;;;;8408386;28;20227;-69
2022/06/01 06:40:14;;;;;;;4.20;3.80;;;14.60;99.90;;;;;;8413479;28;20177;-68
2022/06/01 06:44:15;;;;;;;4.27;3.70;;;14.80;1.00;;;;;;8405829;28;20177;-69
2022/06/01 06:48:17;;;;;;;4.73;4.33;;;15.00;99.90;;;;;;8404145;28;20215;-70
2022/06/01 06:52:18;;;;;;;3.67;3.30;;;15.20;99.90;;;;;;8411751;28;20232;-70
2022/06/01 06:56:20;;;;;;;4.13;2.97;;;15.30;99.90;;;;;;8411117;28;20164;-69
2022/06/01 07:00:21;;;;;;;3.13;2.83;;;15.40;99.90;;;;;;8412601;28;20216;-68
2022/06/01 07:04:21;;;;;;;3.03;2.73;;;15.60;99.90;;;;;;8398938;28;20176;-65
2022/06/01 07:08:22;;;;;;;3.07;2.47;;;15.70;18.90;;;;;;8400763;28;20205;-62
2022/06/01 07:12:23;;;;;;;2.83;2.53;;;15.80;18.30;;;;;;8403267;28;20657;-65
2022/06/01 07:16:27;;;;;;;4.20;2.60;;;16.10;1.00;;;;;;8405387;28;20226;-63
2022/06/01 07:20:28;;;;;;;3.63;2.60;;;16.00;1.00;;;;;;8405735;28;20192;-63
2022/06/01 07:24:29;;;;;;;2.57;2.30;;;15.90;1.00;;;;;;8402869;28;20189;-64
2022/06/01 07:28:30;;;;;;;2.67;2.10;;;16.20;1.00;;;;;;8405486;28;20518;-64
2022/06/01 07:32:30;;;;;;;2.27;2.07;;;16.60;1.00;;;;;;8397859;28;20288;-66
2022/06/01 07:36:32;;;;;;;1.90;1.80;;;17.00;99.90;;;;;;8405028;28;20177;-64
2022/06/01 07:44:53;;;;;;;1.70;1.60;;;17.20;99.90;;;;;;8396644;28;20461;-64
2022/06/01 07:48:54;;;;;;;3.03;1.67;;;17.50;99.90;;;;;;8397781;28;20208;-62
2022/06/01 07:52:55;;;;;;;2.07;1.60;;;18.00;99.90;;;;;;8400352;28;20180;-65
2022/06/01 07:56:56;;;;;;;1.77;1.63;;;17.90;99.90;;;;;;8403585;28;20183;-63
2022/06/01 08:00:57;;;;;;;2.07;1.90;;;18.00;99.90;;;;;;8396046;28;20193;-64
2022/06/01 08:04:58;;;;;;;1.93;1.50;;;18.60;99.90;;;;;;8393898;28;20180;-62
2022/06/01 08:08:59;;;;;;;1.60;1.50;;;19.20;98.10;;;;;;8406814;28;20204;-67
2022/06/01 08:13:09;;;;;;;1.80;1.70;;;18.80;51.60;;;;;;8401447;28;20192;-64
2022/06/01 08:17:10;;;;;;;3.20;1.70;;;18.20;99.90;;;;;;8397362;28;20185;-64
2022/06/01 08:21:11;;;;;;;4.83;1.87;;;17.60;99.90;;;;;;8401458;28;20184;-64
2022/06/01 08:25:13;;;;;;;1.70;1.60;;;17.40;99.90;;;;;;8397613;28;20177;-65
2022/06/01 08:29:14;;;;;;;1.33;1.20;;;17.50;99.90;;;;;;8403528;28;20219;-63
2022/06/01 08:33:16;;;;;;;1.80;1.40;;;17.90;99.90;;;;;;8396926;28;20238;-68
2022/06/01 08:37:17;;;;;;;2.27;1.53;;;18.40;88.40;;;;;;8402896;28;20185;-64
2022/06/01 08:41:21;;;;;;;1.57;1.40;;;18.90;95.90;;;;;;8396411;28;20181;-63
2022/06/01 08:45:24;;;;;;;1.33;1.23;;;19.00;30.50;;;;;;8406745;28;20192;-65
2022/06/01 08:49:30;;;;;;;2.03;1.50;;;18.60;27.10;;;;;;8405151;28;20204;-64
2022/06/01 08:53:31;;;;;;;1.83;1.57;;;17.90;92.40;;;;;;8414347;28;20189;-63
2022/06/01 08:57:54;;;;;;;1.23;1.13;;;18.50;99.90;;;;;;8407377;28;20303;-65
2022/06/01 09:02:22;;;;;;;1.20;1.10;;;19.40;1.00;;;;;;8406540;28;20180;-63
2022/06/01 09:06:29;;;;;;;1.50;1.40;;;19.10;11.80;;;;;;8418563;28;20176;-62
2022/06/01 09:11:04;;;;;;;3.00;1.30;;;19.50;11.10;;;;;;8406206;28;20237;-63
2022/06/01 09:15:21;;;;;;;1.60;1.50;;;19.90;1.00;;;;;;8408597;28;20177;-65
2022/06/01 09:19:25;;;;;;;1.77;1.33;;;19.70;1.00;;;;;;8408589;28;20182;-64
2022/06/01 09:23:26;;;;;;;2.10;1.27;;;19.60;1.00;;;;;;8404730;28;20184;-65
2022/06/01 09:27:59;;;;;;;1.63;1.40;;;20.20;1.00;;;;;;8407205;28;20346;-61
2022/06/01 09:32:06;;;;;;;0.93;0.87;;;20.00;1.00;;;;;;8396724;28;20274;-63
2022/06/01 09:36:06;;;;;;;1.87;1.07;;;20.30;1.00;;;;;;8401323;28;20177;-64
2022/06/01 09:40:29;;;;;;;3.37;1.13;;;20.80;1.00;;;;;;8402693;28;20188;-63
2022/06/01 09:44:34;;;;;;;1.70;1.10;;;20.70;1.00;;;;;;8407597;28;20184;-60
2022/06/01 09:48:46;;;;;;;2.17;1.10;;;20.50;1.00;;;;;;8402505;28;20201;-64
2022/06/01 09:52:47;;;;;;;1.77;1.20;;;20.10;1.00;;;;;;8408637;28;20539;-61
2022/06/01 09:56:49;;;;;;;2.97;0.80;;;20.50;1.00;;;;;;8397922;28;20184;-63
2022/06/01 10:10:01;;;;;;;1.83;0.90;;;21.10;1.00;;;;;;8406411;28;20242;-63
2022/06/01 10:14:08;;;;;;;2.10;0.80;;;21.10;1.00;;;;;;8407334;28;20173;-61
2022/06/01 10:18:14;;;;;;;0.90;0.70;;;21.00;1.00;;;;;;8399306;28;20196;-61
2022/06/01 10:22:47;;;;;;;1.23;0.87;;;21.50;1.00;;;;;;8410661;28;20196;-63
2022/06/01 10:26:55;;;;;;;1.13;0.70;;;21.70;1.00;;;;;;8389387;28;20231;-63
2022/06/01 10:31:00;;;;;;;0.80;0.70;;;22.30;1.00;;;;;;8399266;28;20176;-61
2022/06/01 10:35:18;;;;;;;1.20;0.80;;;22.20;1.00;;;;;;8410778;28;20185;-62
2022/06/01 10:39:34;;;;;;;1.20;0.90;;;21.80;1.00;;;;;;8403959;28;20196;-62
2022/06/01 10:43:39;;;;;;;1.37;0.63;;;21.50;1.00;;;;;;8406620;28;20177;-64
2022/06/01 10:48:05;;;;;;;3.07;1.07;;;21.70;1.00;;;;;;8404466;28;20205;-62
2022/06/01 10:52:08;;;;;;;1.03;0.53;;;22.00;1.00;;;;;;8404807;28;20172;-65
2022/06/01 10:56:10;;;;;;;1.50;0.63;;;21.30;1.00;;;;;;8402272;28;20185;-61
2022/06/01 11:00:20;;;;;;;1.93;0.90;;;21.40;1.00;;;;;;8408256;28;20216;-65
2022/06/01 11:04:48;;;;;;;1.57;0.80;;;21.70;1.00;;;;;;8399931;28;20177;-62
2022/06/01 11:09:17;;;;;;;1.40;0.70;;;21.90;1.00;;;;;;8402211;28;20209;-63
2022/06/01 11:13:33;;;;;;;2.00;0.80;;;22.40;1.00;;;;;;8405730;28;20205;-63
2022/06/01 11:17:49;;;;;;;1.20;0.80;;;23.00;1.00;;;;;;8407347;28;20178;-66
2022/06/01 11:22:30;;;;;;;3.40;0.60;;;22.60;1.00;;;;;;8408139;28;20184;-66
2022/06/01 11:26:41;;;;;;;0.70;0.60;;;22.10;1.00;;;;;;8408247;28;20212;-65
2022/06/01 11:30:45;;;;;;;0.70;0.60;;;21.80;1.00;;;;;;8412955;28;20195;-68
2022/06/01 11:34:53;;;;;;;1.13;0.60;;;21.80;1.00;;;;;;8405636;28;20184;-67
2022/06/01 11:39:14;;;;;;;0.80;0.50;;;21.80;1.00;;;;;;8399103;28;20192;-65
2022/06/01 11:43:29;;;;;;;3.00;0.70;;;22.10;1.00;;;;;;8411465;28;20619;-66
2022/06/01 11:48:00;;;;;;;1.80;0.60;;;22.30;1.00;;;;;;8405289;28;20212;-68
2022/06/01 11:52:20;;;;;;;1.63;0.57;;;22.80;1.00;;;;;;8406903;28;20192;-66
2022/06/01 11:56:30;;;;;;;1.50;0.80;;;23.10;1.00;;;;;;8407992;28;20184;-66
2022/06/01 12:00:35;;;;;;;0.77;0.60;;;22.90;1.00;;;;;;8401436;28;20188;-68
2022/06/01 12:04:39;;;;;;;0.90;0.50;;;22.70;1.00;;;;;;8395753;28;20260;-66
2022/06/01 12:09:02;;;;;;;1.17;0.77;;;22.50;1.00;;;;;;8409932;28;20217;-67
2022/06/01 12:13:27;;;;;;;1.93;0.80;;;22.30;1.00;;;;;;8407711;28;20215;-68
2022/06/01 12:17:31;;;;;;;1.93;0.80;;;22.00;1.00;;;;;;8410633;28;20189;-66
2022/06/01 12:21:41;;;;;;;2.27;1.00;;;21.30;1.00;;;;;;8407732;28;20192;-71
2022/06/01 12:30:23;;;;;;;2.10;0.90;;;19.70;1.00;;;;;;8399187;28;20314;-66
2022/06/01 12:34:48;;;;;;;0.83;0.70;;;19.30;1.00;;;;;;8405025;28;20181;-65
2022/06/01 12:38:50;;;;;;;1.23;0.90;;;19.00;1.00;;;;;;8408907;28;20195;-65
2022/06/01 12:42:55;;;;;;;0.87;0.70;;;18.90;1.00;;;;;;8400509;28;20185;-65
2022/06/01 12:46:56;;;;;;;1.57;0.80;;;19.00;1.00;;;;;;8407521;28;20203;-72
2022/06/01 12:51:02;;;;;;;1.67;0.90;;;19.10;1.00;;;;;;8409456;28;20176;-67
2022/06/01 12:55:17;;;;;;;1.37;0.90;;;19.10;1.00;;;;;;8393710;28;20223;-67
2022/06/01 12:59:18;;;;;;;1.00;0.80;;;19.00;1.00;;;;;;8406214;28;20181;-65
2022/06/01 13:03:21;;;;;;;1.30;1.00;;;19.00;1.00;;;;;;8401534;28;20189;-66
2022/06/01 13:07:35;;;;;;;0.90;0.80;;;19.00;1.00;;;;;;8406198;28;20200;-66
2022/06/01 13:11:38;;;;;;;1.23;0.93;;;19.20;1.00;;;;;;8406068;28;20177;-67
2022/06/01 13:15:43;;;;;;;0.90;0.70;;;19.40;1.00;;;;;;8404019;28;20177;-64
2022/06/01 13:20:00;;;;;;;0.90;0.70;;;20.10;1.00;;;;;;8402016;28;20196;-68
2022/06/01 13:24:07;;;;;;;2.40;1.00;;;20.90;1.00;;;;;;8406933;28;20246;-67
2022/06/01 13:28:11;;;;;;;0.93;0.80;;;21.30;1.00;;;;;;8395185;28;20224;-68
2022/06/01 13:32:14;;;;;;;0.70;0.50;;;21.40;1.00;;;;;;8405696;28;20181;-66
2022/06/01 13:36:36;;;;;;;1.13;0.73;;;21.50;1.00;;;;;;8417919;28;20211;-67
2022/06/01 13:40:51;;;;;;;2.40;0.80;;;21.20;1.00;;;;;;8422757;27;20189;-66
2022/06/01 13:45:17;;;;;;;2.13;1.00;;;21.30;1.00;;;;;;8417532;28;20189;-66
2022/06/01 13:49:17;;;;;;;2.07;0.90;;;21.30;1.00;;;;;;8404112;28;20227;-69
2022/06/01 13:53:31;;;;;;;1.33;0.70;;;21.40;1.00;;;;;;8406999;28;20177;-67
2022/06/01 13:57:53;;;;;;;1.90;0.80;;;21.60;1.00;;;;;;8403917;28;20192;-67
2022/06/01 14:02:03;;;;;;;2.67;0.90;;;21.30;1.00;;;;;;8404614;28;20196;-70
2022/06/01 14:06:07;;;;;;;1.60;0.70;;;21.20;1.00;;;;;;8404415;28;20315;-67
2022/06/01 14:10:07;;;;;;;1.10;0.80;;;21.20;1.00;;;;;;8406800;28;20232;-67
2022/06/01 14:14:11;;;;;;;2.40;0.90;;;21.50;1.00;;;;;;8400721;28;20188;-67
2022/06/01 14:18:26;;;;;;;0.90;0.80;;;21.70;1.00;;;;;;8403329;28;20188;-67
2022/06/01 14:22:27;;;;;;;2.30;0.70;;;21.60;1.00;;;;;;8412284;28;20207;-69
2022/06/01 14:30:46;;;;;;;3.97;0.90;;;21.80;1.00;;;;;;8406086;28;20262;-65
2022/06/01 14:34:48;;;;;;;1.20;1.10;;;22.40;1.00;;;;;;8403796;28;20185;-66
2022/06/01 14:38:50;;;;;;;2.10;0.80;;;22.50;1.00;;;;;;8405147;28;20196;-70
2022/06/01 14:42:50;;;;;;;2.70;2.50;;;22.70;1.00;;;;;;8400412;28;20185;-68
2022/06/01 14:46:52;;;;;;;1.30;0.80;;;22.90;1.00;;;;;;8401865;28;20236;-69
2022/06/01 14:51:02;;;;;;;1.87;1.30;;;23.20;1.00;;;;;;8403250;28;20281;-68
2022/06/01 14:55:04;;;;;;;1.70;0.60;;;23.30;1.00;;;;;;8402303;28;20176;-66
2022/06/01 14:59:05;;;;;;;1.40;0.93;;;22.80;1.00;;;;;;8402941;28;20188;-67
2022/06/01 15:03:10;;;;;;;0.90;0.63;;;22.30;1.00;;;;;;8407640;28;20185;-67
2022/06/01 15:07:11;;;;;;;1.70;0.73;;;21.90;1.00;;;;;;8404019;28;20250;-65
2022/06/01 15:11:12;;;;;;;1.23;0.83;;;21.70;1.00;;;;;;8404772;28;20177;-67
2022/06/01 15:15:15;;;;;;;1.60;0.80;;;21.60;1.00;;;;;;8403997;28;20184;-68
2022/06/01 15:19:18;;;;;;;1.43;0.60;;;21.40;1.00;;;;;;8407472;28;20185;-66
2022/06/01 15:23:19;;;;;;;2.67;0.70;;;21.10;1.00;;;;;;8406957;28;20208;-67
2022/06/01 15:27:22;;;;;;;0.77;0.50;;;20.60;1.00;;;;;;8403101;28;20212;-68
2022/06/01 15:40:02;;;;;;;0.93;0.70;;;20.20;1.00;;;;;;8408600;28;20192;-69
2022/06/01 15:44:03;;;;;;;1.23;0.60;;;20.20;1.00;;;;;;8397097;28;20180;-68
2022/06/01 15:48:07;;;;;;;0.70;0.50;;;20.00;1.00;;;;;;8404008;28;20496;-66
2022/06/01 15:52:17;;;;;;;0.70;0.57;;;20.10;1.00;;;;;;8397938;28;20183;-69
2022/06/01 15:56:18;;;;;;;0.60;0.50;;;20.10;1.00;;;;;;8399249;28;20169;-67
2022/06/01 16:00:19;;;;;;;0.80;0.57;;;20.30;1.00;;;;;;8401742;28;20279;-68
2022/06/01 16:04:20;;;;;;;0.97;0.50;;;20.40;1.00;;;;;;8405751;28;20184;-69
2022/06/01 16:08:22;;;;;;;1.10;0.50;;;20.50;1.00;;;;;;8405057;28;20299;-68
2022/06/01 16:12:22;;;;;;;1.17;0.60;;;20.70;1.00;;;;;;8401469;28;20177;-65
2022/06/01 16:16:28;;;;;;;2.30;0.60;;;20.60;1.00;;;;;;8397555;28;20177;-68
2022/06/01 16:20:31;;;;;;;1.50;0.67;;;20.40;1.00;;;;;;8409840;28;20180;-69
2022/06/01 16:24:32;;;;;;;1.63;0.50;;;20.10;1.00;;;;;;8397248;28;20177;-64
2022/06/01 16:28:33;;;;;;;0.93;0.60;;;19.90;1.00;;;;;;8402219;28;20220;-66
2022/06/01 16:32:37;;;;;;;0.90;0.70;;;19.70;1.00;;;;;;8405916;28;20180;-66
2022/06/01 16:36:38;;;;;;;1.77;0.50;;;19.60;1.00;;;;;;8405667;28;20181;-66
2022/06/01 16:40:39;;;;;;;0.80;0.40;;;19.30;1.00;;;;;;8412835;28;20267;-66
2022/06/01 16:44:40;;;;;;;1.00;0.53;;;19.10;1.00;;;;;;8406545;28;20493;-68
2022/06/01 16:48:41;;;;;;;1.77;0.80;;;18.90;1.00;;;;;;8410033;28;20208;-68
2022/06/01 16:52:43;;;;;;;1.90;0.70;;;18.70;1.00;;;;;;8404309;28;20542;-66
2022/06/01 16:56:43;;;;;;;1.30;0.87;;;18.50;1.00;;;;;;8398129;28;20176;-66
2022/06/01 17:00:46;;;;;;;1.23;1.03;;;17.90;43.60;;;;;;8402336;28;20209;-68
2022/06/01 17:04:47;;;;;;;1.50;1.10;;;17.20;99.90;;;;;;8403658;28;20177;-67
2022/06/01 17:08:48;;;;;;;1.83;1.40;;;16.80;99.90;;;;;;8401247;28;20295;-66
2022/06/01 17:12:49;;;;;;;2.57;1.40;;;16.50;99.90;;;;;;8407723;28;20581;-65
2022/06/01 17:16:50;;;;;;;2.07;1.07;;;16.50;99.90;;;;;;8405219;28;20267;-67
2022/06/01 17:20:52;;;;;;;1.60;1.50;;;17.00;1.00;;;;;;8405149;28;20184;-67
2022/06/01 17:24:53;;;;;;;1.03;0.93;;;17.40;1.00;;;;;;8403444;28;20184;-67
2022/06/01 17:28:53;;;;;;;1.00;0.90;;;17.60;1.00;;;;;;8408600;28;20220;-67
2022/06/01 17:32:54;;;;;;;2.90;1.27;;;17.60;1.00;;;;;;8406037;28;20184;-67
2022/06/01 17:36:55;;;;;;;1.30;1.20;;;17.40;1.00;;;;;;8403457;28;20185;-66
2022/06/01 17:40:57;;;;;;;1.93;1.10;;;17.20;68.90;;;;;;8400191;28;20242;-70
2022/06/01 17:44:58;;;;;;;1.50;1.17;;;17.20;99.90;;;;;;8402688;28;20524;-68
2022/06/01 17:48:59;;;;;;;1.37;1.00;;;17.20;99.90;;;;;;8407019;28;20196;-66
2022/06/01 17:53:01;;;;;;;1.50;1.37;;;17.10;99.90;;;;;;8403233;28;20260;-70
2022/06/01 17:57:04;;;;;;;1.50;1.17;;;16.90;99.90;;;;;;8410615;28;20189;-67
2022/06/01 18:01:05;;;;;;;1.17;1.07;;;16.70;99.90;;;;;;8402978;28;20184;-66
2022/06/01 18:05:08;;;;;;;1.63;1.30;;;16.50;99.90;;;;;;8402427;28;20180;-66
2022/06/01 18:09:10;;;;;;;1.70;1.20;;;16.10;99.90;;;;;;8403150;28;20228;-66
2022/06/01 18:13:11;;;;;;;3.87;1.70;;;15.80;99.90;;;;;;8393377;28;20181;-68
2022/06/01 18:17:12;;;;;;;3.80;1.87;;;15.70;1.00;;;;;;8414524;28;20189;-67
2022/06/01 18:21:13;;;;;;;2.90;1.50;;;15.70;1.00;;;;;;8400915;28;20191;-66
2022/06/01 18:25:14;;;;;;;3.00;1.80;;;15.60;99.90;;;;;;8410688;28;20181;-67
2022/06/01 18:29:19;;;;;;;4.10;1.83;;;15.40;1.00;;;;;;8398851;28;20228;-72
2022/06/01 18:33:21;;;;;;;2.43;1.83;;;15.10;99.90;;;;;;8402734;28;20185;-66
2022/06/01 18:37:22;;;;;;;2.93;1.80;;;14.80;1.00;;;;;;8401943;28;20594;-67
2022/06/01 18:41:25;;;;;;;1.70;1.60;;;14.50;62.40;;;;;;8403269;28;20185;-67
2022/06/01 18:45:26;;;;;;;2.40;1.90;;;14.20;99.90;;;;;;8406937;28;20185;-67
2022/06/01 18:49:27;;;;;;;1.87;1.70;;;14.00;1.00;;;;;;8406099;28;20304;-66
2022/06/01 18:53:29;;;;;;;2.30;2.10;;;13.90;1.00;;;;;;8406107;28;20188;-66
2022/06/01 18:57:30;;;;;;;2.73;2.07;;;13.80;99.90;;;;;;8424550;27;20386;-66
2022/06/01 19:01:36;;;;;;;3.37;2.70;;;13.80;99.90;;;;;;8403532;28;20185;-67
2022/06/01 19:05:37;;;;;;;3.73;3.00;;;13.70;99.90;;;;;;8401018;28;20184;-67
2022/06/01 19:09:38;;;;;;;3.10;2.60;;;13.50;99.90;;;;;;8410036;28;20224;-68
2022/06/01 19:13:39;;;;;;;3.30;3.00;;;13.20;1.00;;;;;;8411260;28;20191;-67
2022/06/01 19:17:41;;;;;;;3.20;2.90;;;13.20;1.00;;;;;;8402943;28;20249;-72
2022/06/01 19:21:42;;;;;;;6.83;4.30;;;13.00;4.90;;;;;;8399816;28;20188;-68
2022/06/01 19:25:43;;;;;;;3.93;3.20;;;13.00;32.00;;;;;;8402293;28;20675;-67
2022/06/01 19:29:47;;;;;;;4.53;3.17;;;12.90;99.50;;;;;;8405249;28;20490;-67
2022/06/01 19:33:48;;;;;;;2.93;2.73;;;12.70;99.90;;;;;;8399665;28;20282;-64
2022/06/01 19:46:31;;;;;;;3.10;2.80;;;12.60;99.90;;;;;;8399611;28;20246;-65
2022/06/01 19:50:32;;;;;;;3.50;3.20;;;12.60;99.90;;;;;;8411074;28;20214;-64
2022/06/01 19:54:33;;;;;;;3.50;2.57;;;12.60;99.90;;;;;;8398200;28;20184;-65
2022/06/01 19:58:36;;;;;;;3.20;2.90;;;12.60;99.90;;;;;;8404095;28;20204;-64
2022/06/01 20:02:37;;;;;;;3.43;2.97;;;12.70;99.90;;;;;;8403122;28;20193;-64
2022/06/01 20:06:38;;;;;;;4.37;3.40;;;12.70;99.90;;;;;;8405636;28;20209;-64
2022/06/01 20:10:39;;;;;;;5.10;4.10;;;12.70;99.90;;;;;;8398988;28;20220;-64
2022/06/01 20:15:01;;;;;;;7.17;4.43;;;12.60;99.90;;;;;;8404837;28;20585;-65
2022/06/01 20:19:03;;;;;;;4.13;3.73;;;12.50;99.90;;;;;;8406900;28;20256;-65
2022/06/01 20:23:04;;;;;;;3.73;3.43;;;12.50;99.90;;;;;;8400072;28;20173;-65
2022/06/01 20:27:05;;;;;;;4.53;3.00;;;12.50;99.90;;;;;;8404283;28;20304;-65
2022/06/01 20:31:06;;;;;;;4.23;3.67;;;12.50;99.90;;;;;;8400543;28;20263;-64
2022/06/01 20:35:08;;;;;;;4.60;3.50;;;12.50;99.90;;;;;;8398447;28;20191;-67
2022/06/01 20:39:10;;;;;;;4.53;3.93;;;12.40;99.90;;;;;;8402565;28;20203;-64
2022/06/01 20:43:10;;;;;;;3.63;3.33;;;12.40;99.90;;;;;;8402778;28;20194;-64
2022/06/01 20:47:12;;;;;;;4.20;3.73;;;12.50;99.90;;;;;;8403706;28;20235;-64
2022/06/01 20:51:13;;;;;;;4.07;3.67;;;12.50;99.90;;;;;;8399378;28;20319;-66
2022/06/01 20:55:16;;;;;;;3.63;3.33;;;12.50;99.90;;;;;;8402049;28;20591;-65
2022/06/01 20:59:17;;;;;;;3.60;3.17;;;12.50;99.90;;;;;;8401885;28;20188;-65
2022/06/01 21:03:18;;;;;;;3.27;2.87;;;12.50;99.90;;;;;;8396439;28;20200;-64
2022/06/01 21:07:18;;;;;;;3.87;3.43;;;12.40;99.90;;;;;;8399887;28;20282;-65
2022/06/01 21:11:19;;;;;;;3.80;3.13;;;12.30;99.90;;;;;;8407410;28;20205;-63
2022/06/01 21:15:20;;;;;;;4.00;3.03;;;12.30;99.90;;;;;;8405723;28;20180;-65
2022/06/01 21:19:21;;;;;;;3.93;3.37;;;12.20;99.90;;;;;;8405179;28;20216;-65
2022/06/01 21:23:22;;;;;;;3.67;3.37;;;12.20;99.90;;;;;;8400342;28;20183;-64
2022/06/01 21:27:23;;;;;;;5.53;3.50;;;12.20;99.90;;;;;;8396385;28;20341;-66
2022/06/01 21:31:24;;;;;;;5.43;4.80;;;12.20;99.90;;;;;;8404558;28;20192;-65
2022/06/01 21:35:25;;;;;;;5.90;4.70;;;12.20;99.90;;;;;;8398724;28;20275;-64
2022/06/01 21:39:26;;;;;;;6.90;5.37;;;12.20;99.90;;;;;;8399200;28;20183;-65
2022/06/01 21:43:27;;;;;;;5.33;4.37;;;12.20;99.90;;;;;;8394848;28;20230;-65
2022/06/01 21:47:29;;;;;;;4.97;4.03;;;12.10;99.90;;;;;;8396354;28;20206;-65
2022/06/01 21:51:29;;;;;;;7.40;4.43;;;12.00;99.90;;;;;;8407720;28;20416;-64
2022/06/01 21:55:30;;;;;;;4.73;4.30;;;11.90;99.90;;;;;;8405241;28;20187;-64
2022/06/01 21:59:32;;;;;;;6.33;5.13;;;11.80;99.90;;;;;;8407780;28;20196;-64
2022/06/01 22:03:35;;;;;;;5.67;4.97;;;11.70;99.90;;;;;;8412119;28;20186;-64
2022/06/01 22:07:36;;;;;;;5.17;4.67;;;11.70;99.90;;;;;;8410916;28;20276;-64
2022/06/01 22:15:56;;;;;;;5.03;4.03;;;11.60;99.90;;;;;;8404058;28;20285;-64